createdAt,value
2017-06-01T00:01:12.445Z,11.76
2017-06-01T00:03:41.749Z,12.20
2017-06-01T00:06:10.760Z,12.52
2017-06-01T00:08:39.777Z,11.74
2017-06-01T00:11:09.215Z,11.62
2017-06-01T00:13:38.246Z,11.12
2017-06-01T00:16:07.225Z,9.90
2017-06-01T00:18:36.534Z,10.24
2017-06-01T00:21:05.506Z,9.24
2017-06-01T00:23:38.353Z,9.20
2017-06-01T00:26:07.340Z,9.32
2017-06-01T00:28:36.700Z,9.24
2017-06-01T00:31:05.683Z,10.40
2017-06-01T00:33:34.663Z,9.98
2017-06-01T00:36:03.974Z,11.50
2017-06-01T00:38:32.936Z,11.58
2017-06-01T00:41:01.928Z,11.10
2017-06-01T00:43:31.242Z,10.90
2017-06-01T00:46:00.238Z,11.12
2017-06-01T00:48:29.214Z,9.00
2017-06-01T00:50:58.524Z,9.12
2017-06-01T00:53:27.408Z,9.44
2017-06-01T00:55:56.420Z,8.80
2017-06-01T00:58:25.696Z,8.34
2017-06-01T01:00:54.682Z,8.68
2017-06-01T01:03:23.673Z,8.08
2017-06-01T01:05:52.953Z,8.76
2017-06-01T01:08:21.901Z,8.44
2017-06-01T01:10:50.882Z,8.08
2017-06-01T01:13:20.160Z,8.96
2017-06-01T01:15:49.126Z,8.36
2017-06-01T01:18:18.107Z,8.98
2017-06-01T01:20:47.429Z,8.18
2017-06-01T01:23:16.427Z,7.98
2017-06-01T01:25:45.457Z,9.62
2017-06-01T01:28:14.718Z,8.18
2017-06-01T01:30:43.717Z,9.02
2017-06-01T01:33:12.671Z,9.20
2017-06-01T01:35:41.913Z,7.96
2017-06-01T01:38:10.965Z,8.32
2017-06-01T01:40:39.925Z,7.68
2017-06-01T01:43:09.187Z,8.62
2017-06-01T01:45:38.164Z,7.96
2017-06-01T01:48:07.117Z,8.44
2017-06-01T01:50:36.341Z,7.90
2017-06-01T01:53:05.333Z,8.12
2017-06-01T01:55:34.303Z,8.24
2017-06-01T01:58:03.530Z,7.36
2017-06-01T02:00:32.503Z,8.38
2017-06-01T02:03:01.500Z,8.44
2017-06-01T02:05:30.814Z,8.28
2017-06-01T02:07:59.779Z,8.98
2017-06-01T02:10:28.757Z,9.54
2017-06-01T02:12:58.013Z,7.52
2017-06-01T02:15:26.984Z,8.62
2017-06-01T02:17:55.964Z,8.26
2017-06-01T02:20:25.272Z,8.38
2017-06-01T02:22:54.242Z,9.14
2017-06-01T02:25:23.214Z,8.50
2017-06-01T02:27:52.402Z,7.96
2017-06-01T02:30:21.378Z,8.08
2017-06-01T02:32:50.342Z,8.66
2017-06-01T02:35:19.569Z,9.56
2017-06-01T02:37:48.535Z,8.88
2017-06-01T02:40:17.505Z,8.16
2017-06-01T02:42:46.820Z,8.92
2017-06-01T02:45:15.830Z,9.84
2017-06-01T02:47:44.799Z,8.58
2017-06-01T02:50:14.095Z,8.38
2017-06-01T02:52:43.087Z,8.72
2017-06-01T02:55:12.053Z,9.14
2017-06-01T02:57:41.307Z,8.66
2017-06-01T03:00:10.300Z,8.90
2017-06-01T03:02:39.251Z,7.84
2017-06-01T03:05:08.583Z,8.34
2017-06-01T03:07:37.514Z,8.60
2017-06-01T03:10:06.531Z,9.14
2017-06-01T03:12:35.764Z,8.60
2017-06-01T03:15:04.724Z,8.46
2017-06-01T03:17:33.706Z,9.26
2017-06-01T03:20:02.915Z,10.10
2017-06-01T03:22:31.973Z,9.00
2017-06-01T03:25:00.946Z,9.20
2017-06-01T03:27:30.192Z,8.60
2017-06-01T03:29:59.170Z,8.56
2017-06-01T03:32:28.110Z,9.50
2017-06-01T03:34:57.381Z,8.74
2017-06-01T03:37:26.349Z,9.22
2017-06-01T03:39:55.332Z,9.50
2017-06-01T03:42:24.658Z,11.00
2017-06-01T03:44:53.647Z,11.50
2017-06-01T03:47:22.629Z,10.58
2017-06-01T03:49:51.862Z,12.48
2017-06-01T03:52:20.849Z,11.72
2017-06-01T03:54:49.804Z,11.68
2017-06-01T03:57:19.016Z,12.96
2017-06-01T03:59:48.022Z,11.68
2017-06-01T04:02:17.039Z,11.94
2017-06-01T04:04:46.509Z,13.08
2017-06-01T04:07:15.511Z,12.06
2017-06-01T04:09:44.470Z,11.34
2017-06-01T04:12:13.803Z,10.98
2017-06-01T04:14:42.782Z,11.60
2017-06-01T04:17:11.736Z,11.92
2017-06-01T04:19:41.054Z,10.52
2017-06-01T04:22:10.063Z,10.60
2017-06-01T04:24:39.043Z,10.80
2017-06-01T04:27:07.559Z,9.84
2017-06-01T04:29:36.530Z,11.02
2017-06-01T04:32:05.618Z,10.42
2017-06-01T04:34:34.870Z,10.44
2017-06-01T04:37:03.854Z,12.00
2017-06-01T04:39:32.858Z,11.04
2017-06-01T04:42:02.190Z,11.58
2017-06-01T04:44:31.160Z,11.12
2017-06-01T04:47:00.120Z,10.76
2017-06-01T04:49:29.349Z,11.10
2017-06-01T04:51:58.446Z,10.96
2017-06-01T04:54:27.412Z,10.82
2017-06-01T04:56:56.747Z,11.86
2017-06-01T04:59:25.705Z,11.70
2017-06-01T05:01:54.673Z,11.14
2017-06-01T05:04:23.939Z,10.22
2017-06-01T05:06:52.932Z,9.82
2017-06-01T05:09:21.982Z,11.24
2017-06-01T05:11:51.207Z,9.96
2017-06-01T05:14:20.172Z,10.08
2017-06-01T05:16:49.147Z,10.66
2017-06-01T05:19:18.374Z,10.94
2017-06-01T05:21:47.352Z,10.62
2017-06-01T05:24:16.330Z,12.04
2017-06-01T05:26:45.549Z,10.04
2017-06-01T05:29:14.729Z,10.54
2017-06-01T05:31:43.683Z,10.58
2017-06-01T05:34:12.725Z,10.54
2017-06-01T05:36:41.688Z,10.20
2017-06-01T05:39:10.924Z,10.66
2017-06-01T05:41:39.895Z,10.76
2017-06-01T05:44:08.869Z,10.78
2017-06-01T05:46:37.877Z,10.28
2017-06-01T05:49:06.844Z,10.72
2017-06-01T05:51:36.180Z,10.20
2017-06-01T05:54:05.165Z,11.88
2017-06-01T05:56:34.165Z,10.66
2017-06-01T05:59:03.151Z,11.16
2017-06-01T06:01:32.146Z,11.64
2017-06-01T06:04:01.438Z,10.14
2017-06-01T06:06:30.412Z,9.72
2017-06-01T06:08:59.381Z,10.56
2017-06-01T06:11:28.373Z,10.84
2017-06-01T06:13:57.528Z,10.44
2017-06-01T06:16:26.824Z,9.52
2017-06-01T06:18:55.805Z,10.72
2017-06-01T06:21:24.784Z,10.24
2017-06-01T06:23:54.020Z,11.70
2017-06-01T06:26:22.999Z,10.40
2017-06-01T06:28:51.999Z,12.52
2017-06-01T06:31:20.954Z,11.00
2017-06-01T06:33:49.929Z,12.50
2017-06-01T06:36:19.189Z,12.70
2017-06-01T06:38:48.196Z,10.78
2017-06-01T06:41:17.248Z,11.12
2017-06-01T06:43:46.237Z,13.28
2017-06-01T06:46:15.227Z,12.58
2017-06-01T06:48:44.644Z,12.98
2017-06-01T06:51:13.605Z,12.36
2017-06-01T06:53:42.601Z,12.18
2017-06-01T06:56:11.633Z,12.98
2017-06-01T06:58:41.279Z,13.78
2017-06-01T07:01:10.620Z,12.76
2017-06-01T07:03:39.597Z,12.60
2017-06-01T07:06:08.549Z,12.48
2017-06-01T07:08:37.552Z,12.36
2017-06-01T07:11:06.544Z,13.10
2017-06-01T07:13:35.566Z,11.98
2017-06-01T07:16:04.557Z,11.86
2017-06-01T07:18:33.759Z,12.98
2017-06-01T07:21:02.721Z,13.04
2017-06-01T07:23:31.701Z,11.92
2017-06-01T07:26:00.707Z,12.22
2017-06-01T07:28:29.715Z,12.20
2017-06-01T07:30:58.746Z,13.94
2017-06-01T07:33:27.697Z,11.66
2017-06-01T07:35:56.714Z,11.50
2017-06-01T07:38:25.710Z,13.30
2017-06-01T07:40:55.055Z,10.62
2017-06-01T07:43:24.040Z,11.98
2017-06-01T07:45:53.025Z,11.24
2017-06-01T07:48:22.036Z,13.18
2017-06-01T07:50:51.005Z,12.20
2017-06-01T07:53:20.247Z,12.54
2017-06-01T07:55:49.223Z,11.62
2017-06-01T07:58:18.205Z,13.10
2017-06-01T08:00:47.215Z,12.68
2017-06-01T08:03:16.205Z,14.34
2017-06-01T08:05:45.206Z,12.20
2017-06-01T08:08:14.174Z,12.14
2017-06-01T08:10:43.390Z,13.38
2017-06-01T08:13:12.367Z,13.62
2017-06-01T08:15:41.344Z,14.36
2017-06-01T08:18:10.331Z,14.20
2017-06-01T08:20:39.279Z,16.76
2017-06-01T08:23:08.298Z,15.76
2017-06-01T08:25:37.310Z,16.98
2017-06-01T08:28:06.565Z,16.20
2017-06-01T08:30:35.543Z,16.32
2017-06-01T08:33:04.569Z,15.60
2017-06-01T08:35:33.564Z,16.18
2017-06-01T08:38:02.596Z,16.32
2017-06-01T08:40:31.621Z,16.36
2017-06-01T08:43:00.587Z,14.56
2017-06-01T08:45:29.826Z,17.24
2017-06-01T08:47:58.789Z,14.82
2017-06-01T08:50:27.786Z,17.14
2017-06-01T08:52:56.769Z,17.36
2017-06-01T08:55:25.739Z,16.10
2017-06-01T08:57:54.735Z,16.84
2017-06-01T09:00:23.728Z,15.70
2017-06-01T09:02:52.784Z,15.70
2017-06-01T09:05:21.764Z,15.52
2017-06-01T09:07:51.016Z,15.48
2017-06-01T09:10:20.037Z,16.38
2017-06-01T09:12:49.002Z,16.50
2017-06-01T09:15:18.470Z,17.04
2017-06-01T09:17:47.438Z,16.88
2017-06-01T09:20:16.764Z,16.38
2017-06-01T09:22:45.762Z,17.20
2017-06-01T09:25:14.783Z,19.66
2017-06-01T09:27:43.782Z,18.80
2017-06-01T09:30:12.758Z,18.92
2017-06-01T09:32:41.767Z,19.60
2017-06-01T09:35:10.743Z,19.26
2017-06-01T09:37:39.289Z,18.68
2017-06-01T09:40:08.346Z,18.62
2017-06-01T09:42:37.305Z,17.12
2017-06-01T09:45:06.315Z,17.72
2017-06-01T09:47:35.301Z,17.58
2017-06-01T09:50:04.299Z,15.28
2017-06-01T09:52:33.285Z,15.60
2017-06-01T09:55:01.744Z,14.58
2017-06-01T09:57:30.757Z,17.94
2017-06-01T09:59:59.727Z,18.20
2017-06-01T10:02:28.650Z,17.92
2017-06-01T10:04:57.663Z,15.26
2017-06-01T10:07:26.933Z,16.98
2017-06-01T10:09:55.920Z,16.52
2017-06-01T10:12:24.898Z,12.98
2017-06-01T10:14:53.881Z,14.08
2017-06-01T10:17:22.864Z,12.60
2017-06-01T10:19:51.880Z,12.20
2017-06-01T10:22:20.892Z,12.16
2017-06-01T10:24:49.878Z,11.86
2017-06-01T10:27:18.857Z,10.54
2017-06-01T10:29:48.123Z,9.42
2017-06-01T10:32:17.088Z,6.28
2017-06-01T10:34:46.053Z,5.30
2017-06-01T10:37:15.049Z,6.54
2017-06-01T10:39:44.034Z,6.04
2017-06-01T10:42:13.052Z,5.14
2017-06-01T10:44:42.028Z,4.58
2017-06-01T10:47:11.262Z,5.18
2017-06-01T10:49:40.246Z,6.22
2017-06-01T10:52:09.218Z,6.72
2017-06-01T10:54:38.257Z,5.52
2017-06-01T10:57:07.229Z,6.54
2017-06-01T10:59:36.200Z,6.40
2017-06-01T11:02:05.175Z,6.64
2017-06-01T11:04:34.707Z,7.54
2017-06-01T11:07:03.673Z,7.02
2017-06-01T11:09:32.633Z,8.08
2017-06-01T11:12:01.646Z,7.74
2017-06-01T11:14:30.607Z,7.90
2017-06-01T11:16:59.598Z,9.12
2017-06-01T11:19:28.579Z,8.86
2017-06-01T11:21:57.964Z,8.98
2017-06-01T11:24:26.870Z,9.10
2017-06-01T11:26:55.857Z,10.24
2017-06-01T11:29:24.877Z,10.48
2017-06-01T11:31:53.855Z,11.18
2017-06-01T11:34:23.111Z,11.72
2017-06-01T11:36:52.085Z,9.86
2017-06-01T11:39:21.060Z,10.58
2017-06-01T11:41:50.072Z,8.98
2017-06-01T11:44:19.051Z,9.80
2017-06-01T11:46:48.039Z,8.58
2017-06-01T11:49:17.026Z,8.48
2017-06-01T11:51:46.251Z,9.78
2017-06-01T11:54:15.223Z,7.90
2017-06-01T11:56:44.192Z,8.40
2017-06-01T11:59:13.177Z,8.08
2017-06-01T12:01:42.133Z,6.78
2017-06-01T12:04:11.129Z,6.00
2017-06-01T12:06:40.099Z,6.36
2017-06-01T12:09:09.376Z,6.06
2017-06-01T12:11:38.331Z,7.14
2017-06-01T12:14:07.328Z,6.64
2017-06-01T12:16:36.380Z,7.78
2017-06-01T12:19:05.314Z,7.22
2017-06-01T12:21:34.594Z,7.82
2017-06-01T12:24:03.592Z,6.58
2017-06-01T12:26:32.557Z,6.74
2017-06-01T12:29:01.538Z,6.92
2017-06-01T12:31:30.504Z,5.90
2017-06-01T12:33:59.490Z,6.82
2017-06-01T12:36:28.466Z,7.10
2017-06-01T12:38:57.681Z,6.58
2017-06-01T12:41:26.653Z,6.58
2017-06-01T12:43:55.640Z,6.94
2017-06-01T12:46:24.626Z,4.74
2017-06-01T12:48:53.582Z,5.48
2017-06-01T12:51:22.688Z,5.56
2017-06-01T12:53:51.653Z,5.90
2017-06-01T12:56:20.887Z,5.86
2017-06-01T12:58:49.853Z,7.48
2017-06-01T13:01:18.856Z,6.62
2017-06-01T13:03:47.854Z,6.70
2017-06-01T13:06:16.840Z,5.30
2017-06-01T13:08:45.732Z,4.22
2017-06-01T13:11:14.728Z,4.26
2017-06-01T13:13:44.004Z,4.82
2017-06-01T13:16:12.944Z,5.76
2017-06-01T13:18:42.524Z,5.46
2017-06-01T13:21:11.537Z,5.08
2017-06-01T13:23:40.583Z,5.12
2017-06-01T13:26:09.582Z,5.32
2017-06-01T13:28:38.535Z,4.78
2017-06-01T13:31:07.863Z,4.28
2017-06-01T13:33:36.834Z,4.02
2017-06-01T13:36:05.807Z,3.90
2017-06-01T13:38:34.816Z,3.94
2017-06-01T13:41:03.703Z,3.60
2017-06-01T13:43:32.722Z,3.82
2017-06-01T13:46:01.692Z,3.18
2017-06-01T13:48:30.987Z,3.40
2017-06-01T13:51:00.195Z,5.28
2017-06-01T13:53:29.171Z,5.20
2017-06-01T13:55:58.204Z,4.66
2017-06-01T13:58:27.171Z,4.56
2017-06-01T14:00:56.179Z,4.82
2017-06-01T14:03:25.196Z,4.58
2017-06-01T14:05:54.401Z,4.32
2017-06-01T14:08:23.380Z,4.86
2017-06-01T14:10:52.347Z,4.52
2017-06-01T14:13:21.350Z,4.50
2017-06-01T14:15:50.337Z,4.68
2017-06-01T14:18:19.427Z,4.70
2017-06-01T14:20:48.381Z,5.08
2017-06-01T14:23:17.592Z,5.66
2017-06-01T14:25:46.570Z,5.40
2017-06-01T14:28:15.530Z,5.70
2017-06-01T14:30:44.524Z,5.14
2017-06-01T14:33:13.501Z,5.52
2017-06-01T14:35:42.707Z,5.48
2017-06-01T14:38:11.680Z,5.50
2017-06-01T14:40:40.663Z,5.30
2017-06-01T14:43:09.702Z,5.44
2017-06-01T14:45:38.726Z,5.30
2017-06-01T14:48:07.723Z,4.42
2017-06-01T14:50:36.685Z,5.20
2017-06-01T14:53:06.002Z,4.64
2017-06-01T14:55:35.009Z,4.64
2017-06-01T14:58:03.972Z,4.80
2017-06-01T15:00:32.962Z,4.54
2017-06-01T15:03:01.947Z,4.20
2017-06-01T15:05:30.940Z,4.52
2017-06-01T15:07:59.920Z,4.52
2017-06-01T15:10:29.209Z,4.40
2017-06-01T15:12:58.215Z,4.38
2017-06-01T15:15:27.195Z,4.40
2017-06-01T15:17:56.106Z,4.54
2017-06-01T15:20:25.112Z,4.62
2017-06-01T15:22:54.107Z,4.68
2017-06-01T15:25:23.083Z,3.42
2017-06-01T15:27:52.390Z,4.48
2017-06-01T15:30:21.406Z,4.00
2017-06-01T15:32:50.384Z,5.26
2017-06-01T15:35:19.399Z,4.40
2017-06-01T15:37:48.376Z,4.20
2017-06-01T15:40:17.379Z,4.32
2017-06-01T15:42:46.353Z,3.88
2017-06-01T15:45:15.738Z,4.06
2017-06-01T15:47:44.700Z,4.60
2017-06-01T15:50:13.642Z,4.36
2017-06-01T15:52:42.662Z,5.06
2017-06-01T15:55:11.637Z,4.20
2017-06-01T15:57:40.903Z,4.50
2017-06-01T16:00:09.873Z,4.30
2017-06-01T16:02:38.862Z,4.28
2017-06-01T16:05:07.888Z,4.80
2017-06-01T16:07:36.859Z,4.08
2017-06-01T16:10:06.265Z,4.26
2017-06-01T16:12:34.561Z,5.68
2017-06-01T16:15:03.542Z,4.20
2017-06-01T16:17:31.782Z,5.06
2017-06-01T16:20:00.744Z,4.58
2017-06-01T16:22:30.081Z,4.28
2017-06-01T16:24:59.054Z,4.60
2017-06-01T16:27:28.024Z,3.72
2017-06-01T16:29:57.022Z,5.24
2017-06-01T16:32:26.003Z,4.64
2017-06-01T16:34:55.369Z,5.34
2017-06-01T16:37:24.362Z,4.58
2017-06-01T16:39:53.320Z,4.90
2017-06-01T16:42:22.316Z,4.92
2017-06-01T16:44:51.288Z,4.56
2017-06-01T16:47:20.292Z,4.88
2017-06-01T16:49:49.286Z,4.22
2017-06-01T16:52:18.699Z,4.74
2017-06-01T16:54:47.681Z,4.34
2017-06-01T16:57:16.647Z,5.00
2017-06-01T16:59:45.631Z,3.88
2017-06-01T17:02:14.624Z,4.80
2017-06-01T17:04:43.618Z,5.02
2017-06-01T17:07:12.591Z,4.34
2017-06-01T17:09:41.592Z,4.84
2017-06-01T17:12:10.580Z,4.72
2017-06-01T17:14:39.684Z,4.70
2017-06-01T17:17:08.619Z,5.30
2017-06-01T17:19:37.634Z,4.48
2017-06-01T17:22:06.621Z,5.00
2017-06-01T17:24:35.618Z,4.62
2017-06-01T17:27:03.825Z,5.16
2017-06-01T17:29:32.822Z,4.34
2017-06-01T17:32:01.805Z,4.76
2017-06-01T17:34:30.836Z,5.18
2017-06-01T17:36:59.816Z,5.00
2017-06-01T17:39:28.818Z,5.12
2017-06-01T17:41:57.840Z,4.54
2017-06-01T17:44:26.823Z,4.56
2017-06-01T17:46:55.819Z,5.38
2017-06-01T17:49:24.805Z,4.94
2017-06-01T17:51:53.878Z,5.20
2017-06-01T17:54:23.682Z,5.14
2017-06-01T17:56:52.676Z,5.42
2017-06-01T17:59:21.657Z,5.22
2017-06-01T18:01:50.681Z,5.28
2017-06-01T18:04:19.684Z,4.96
2017-06-01T18:06:48.770Z,4.14
2017-06-01T18:09:17.761Z,5.20
2017-06-01T18:11:46.750Z,5.02
2017-06-01T18:14:15.804Z,4.96
2017-06-01T18:16:44.779Z,4.80
2017-06-01T18:19:13.780Z,4.54
2017-06-01T18:21:42.759Z,4.92
2017-06-01T18:24:11.039Z,4.08
2017-06-01T18:26:40.062Z,4.52
2017-06-01T18:29:09.062Z,5.12
2017-06-01T18:31:38.043Z,5.34
2017-06-01T18:34:07.031Z,5.32
2017-06-01T18:36:36.011Z,4.56
2017-06-01T18:39:05.005Z,4.92
2017-06-01T18:41:33.990Z,5.04
2017-06-01T18:44:02.990Z,5.70
2017-06-01T18:46:31.953Z,5.26
2017-06-01T18:49:01.077Z,4.68
2017-06-01T18:51:30.060Z,5.48
2017-06-01T18:53:59.054Z,5.78
2017-06-01T18:56:28.053Z,4.90
2017-06-01T18:58:57.057Z,5.60
2017-06-01T19:01:26.086Z,5.30
2017-06-01T19:06:56.010Z,4.60
2017-06-01T19:09:25.105Z,5.34
2017-06-01T19:11:54.110Z,5.20
2017-06-01T19:14:23.144Z,5.12
2017-06-01T19:16:52.131Z,5.18
2017-06-01T19:19:21.146Z,4.88
2017-06-01T19:21:50.152Z,4.88
2017-06-01T19:24:19.145Z,5.68
2017-06-01T19:26:48.153Z,5.10
2017-06-01T19:29:17.534Z,5.46
2017-06-01T19:31:46.501Z,5.50
2017-06-01T19:34:15.494Z,5.18
2017-06-01T19:36:44.650Z,6.50
2017-06-01T19:39:13.637Z,5.78
2017-06-01T19:41:42.651Z,6.40
2017-06-01T19:44:11.657Z,5.36
2017-06-01T19:46:40.673Z,5.88
2017-06-01T19:49:09.689Z,6.08
2017-06-01T19:51:38.721Z,6.78
2017-06-01T19:54:07.750Z,8.10
2017-06-01T19:56:36.006Z,7.12
2017-06-01T19:59:05.001Z,6.58
2017-06-01T20:01:34.025Z,6.82
2017-06-01T20:04:03.000Z,5.84
2017-06-01T20:06:32.038Z,6.56
2017-06-01T20:09:01.046Z,6.02
2017-06-01T20:11:30.059Z,5.82
2017-06-01T20:13:58.980Z,5.28
2017-06-01T20:16:28.042Z,6.88
2017-06-01T20:18:57.045Z,7.82
2017-06-01T20:21:26.087Z,6.62
2017-06-01T20:23:55.061Z,6.50
2017-06-01T20:26:24.039Z,4.78
2017-06-01T20:28:53.057Z,4.80
2017-06-01T20:31:22.067Z,4.68
2017-06-01T20:33:54.078Z,4.00
2017-06-01T20:36:23.070Z,3.48
2017-06-01T20:38:52.079Z,3.70
2017-06-01T20:41:21.098Z,3.22
2017-06-01T20:43:50.104Z,2.80
2017-06-01T20:46:19.230Z,2.58
2017-06-01T20:48:48.212Z,2.38
2017-06-01T20:51:17.206Z,2.68
2017-06-01T20:53:46.186Z,2.30
2017-06-01T20:56:15.170Z,2.62
2017-06-01T20:58:44.180Z,2.34
2017-06-01T21:01:13.337Z,2.32
2017-06-01T21:03:42.470Z,2.56
2017-06-01T21:06:11.508Z,2.32
2017-06-01T21:08:40.461Z,2.68
2017-06-01T21:11:09.990Z,2.40
2017-06-01T21:13:38.986Z,2.28
2017-06-01T21:16:08.039Z,1.86
2017-06-01T21:18:36.274Z,2.14
2017-06-01T21:21:05.303Z,2.20
2017-06-01T21:23:34.283Z,1.72
2017-06-01T21:26:03.220Z,2.44
2017-06-01T21:28:32.278Z,2.76
2017-06-01T21:31:01.350Z,1.96
2017-06-01T21:33:30.337Z,2.42
2017-06-01T21:35:59.323Z,1.76
2017-06-01T21:38:28.338Z,2.22
2017-06-01T21:40:57.341Z,2.72
2017-06-01T21:43:26.297Z,2.60
2017-06-01T21:45:55.252Z,2.40
2017-06-01T21:48:24.312Z,2.08
2017-06-01T21:50:53.279Z,2.12
2017-06-01T21:53:22.287Z,2.06
2017-06-01T21:55:51.251Z,2.14
2017-06-01T21:58:20.239Z,1.96
2017-06-01T22:00:49.206Z,2.54
2017-06-01T22:03:18.290Z,2.62
2017-06-01T22:05:47.255Z,2.54
2017-06-01T22:08:16.242Z,2.40
2017-06-01T22:10:45.213Z,2.84
2017-06-01T22:13:14.201Z,2.82
2017-06-01T22:15:43.207Z,2.80
2017-06-01T22:18:12.198Z,2.48
2017-06-01T22:20:41.172Z,2.94
2017-06-01T22:23:10.193Z,2.50
2017-06-01T22:25:39.176Z,2.92
2017-06-01T22:28:08.165Z,2.32
2017-06-01T22:30:37.179Z,2.42
2017-06-01T22:33:06.202Z,3.10
2017-06-01T22:35:35.228Z,2.38
2017-06-01T22:38:04.204Z,2.64
2017-06-01T22:40:52.781Z,2.72
2017-06-01T22:43:21.784Z,1.88
2017-06-01T22:45:50.740Z,2.58
2017-06-01T22:48:19.750Z,2.60
2017-06-01T22:50:48.723Z,2.76
2017-06-01T22:53:17.754Z,3.12
2017-06-01T22:55:46.732Z,2.58
2017-06-01T22:58:15.722Z,3.02
2017-06-01T23:00:44.700Z,3.58
2017-06-01T23:03:13.689Z,2.98
2017-06-01T23:05:42.662Z,3.12
2017-06-01T23:08:11.729Z,2.92
2017-06-01T23:10:40.685Z,3.18
2017-06-01T23:13:09.668Z,2.66
2017-06-01T23:15:38.624Z,2.80
2017-06-01T23:18:07.605Z,2.90
2017-06-01T23:20:36.597Z,3.04
2017-06-01T23:23:05.596Z,2.58
2017-06-01T23:25:34.557Z,2.86
2017-06-01T23:28:03.549Z,2.82
2017-06-01T23:30:32.597Z,3.52
2017-06-01T23:33:01.587Z,3.86
2017-06-01T23:35:29.779Z,4.32
2017-06-01T23:37:58.830Z,3.64
2017-06-01T23:40:27.798Z,3.84
2017-06-01T23:42:56.788Z,3.90
2017-06-01T23:45:25.767Z,3.88
2017-06-01T23:47:54.752Z,3.52
2017-06-01T23:50:23.746Z,3.66
2017-06-01T23:52:52.802Z,3.38
2017-06-01T23:55:21.039Z,3.48
2017-06-01T23:57:50.042Z,3.56
